Time,TemperatureF,DewpointF,PressureIn,WindDirection,WindDirectionDegrees,WindSpeedMPH,WindSpeedGustMPH,Humidity,HourlyPrecipIn,Conditions,Clouds,dailyrainin,SoftwareType,DateUTC
2013-02-18 00:01:00,14.0,8.0,29.93,North,355,0.0,-999.0,77,-99.99,,,-99.99,,2013-02-18 07:01:00,
2013-02-18 00:11:00,14.0,8.0,29.93,North,355,0.0,-999.0,77,-99.99,,,-99.99,,2013-02-18 07:11:00,
2013-02-18 00:21:00,14.0,8.0,29.93,North,355,0.0,-999.0,77,-99.99,,,-99.99,,2013-02-18 07:21:00,
2013-02-18 00:31:00,14.0,8.0,29.93,North,355,0.0,-999.0,77,-99.99,,,-99.99,,2013-02-18 07:31:00,
2013-02-18 00:42:00,14.0,8.0,29.93,North,355,0.0,-999.0,77,-99.99,,,-99.99,,2013-02-18 07:42:00,
2013-02-18 00:52:00,13.0,7.0,29.93,North,355,1.0,-999.0,78,-99.99,,,-99.99,,2013-02-18 07:52:00,
2013-02-18 01:01:00,13.0,8.0,29.95,North,355,0.0,-999.0,80,-99.99,,,-99.99,,2013-02-18 08:01:00,
2013-02-18 01:11:00,13.0,8.0,29.95,North,355,0.0,-999.0,80,-99.99,,,-99.99,,2013-02-18 08:11:00,
2013-02-18 01:21:00,14.0,9.0,29.95,North,355,0.0,-999.0,80,-99.99,,,-99.99,,2013-02-18 08:21:00,
2013-02-18 01:32:00,13.0,8.0,29.95,SSW,211,1.0,-999.0,81,-99.99,,,-99.99,,2013-02-18 08:32:00,
2013-02-18 01:41:00,13.0,8.0,29.95,SSW,211,1.0,-999.0,81,-99.99,,,-99.99,,2013-02-18 08:41:00,
2013-02-18 01:52:00,12.0,7.0,29.93,SSW,198,1.0,-999.0,80,-99.99,,,-99.99,,2013-02-18 08:52:00,
2013-02-18 02:02:00,13.0,9.0,29.93,SSW,198,0.0,-999.0,83,-99.99,,,-99.99,,2013-02-18 09:02:00,
2013-02-18 02:11:00,13.0,9.0,29.93,SSW,198,0.0,-999.0,83,-99.99,,,-99.99,,2013-02-18 09:11:00,
2013-02-18 02:22:00,13.0,9.0,29.94,SSE,159,1.0,-999.0,82,-99.99,,,-99.99,,2013-02-18 09:22:00,
2013-02-18 02:31:00,13.0,8.0,29.95,SSE,159,0.0,-999.0,81,-99.99,,,-99.99,,2013-02-18 09:31:00,
2013-02-18 02:41:00,13.0,8.0,29.95,SSE,159,0.0,-999.0,81,-99.99,,,-99.99,,2013-02-18 09:41:00,
2013-02-18 02:52:00,13.0,9.0,29.95,NNW,327,1.0,-999.0,84,-99.99,,,-99.99,,2013-02-18 09:52:00,
2013-02-18 03:01:00,14.0,10.0,29.95,NNE,17,0.0,-999.0,85,-99.99,,,-99.99,,2013-02-18 10:01:00,
2013-02-18 03:11:00,14.0,10.0,29.95,NNE,17,0.0,-999.0,85,-99.99,,,-99.99,,2013-02-18 10:11:00,
2013-02-18 03:21:00,14.0,10.0,29.95,NNE,17,1.0,-999.0,84,-99.99,,,-99.99,,2013-02-18 10:21:00,
2013-02-18 03:31:00,14.0,10.0,29.95,NNE,17,1.0,-999.0,84,-99.99,,,-99.99,,2013-02-18 10:31:00,
2013-02-18 03:41:00,14.0,10.0,29.95,NNE,17,1.0,-999.0,84,-99.99,,,-99.99,,2013-02-18 10:41:00,
2013-02-18 03:52:00,14.0,10.0,29.95,NNE,17,0.0,-999.0,84,-99.99,,,-99.99,,2013-02-18 10:52:00,
2013-02-18 04:01:00,14.0,10.0,29.96,NNE,17,0.0,-999.0,84,-99.99,,,-99.99,,2013-02-18 11:01:00,
2013-02-18 04:11:00,14.0,10.0,29.96,NNE,17,0.0,-999.0,84,-99.99,,,-99.99,,2013-02-18 11:11:00,
2013-02-18 04:21:00,15.0,11.0,29.96,NNE,17,0.0,-999.0,84,-99.99,,,-99.99,,2013-02-18 11:21:00,
2013-02-18 04:31:00,14.0,10.0,29.96,NNE,17,0.0,-999.0,83,-99.99,,,-99.99,,2013-02-18 11:31:00,
2013-02-18 04:41:00,14.0,10.0,29.96,NNE,17,0.0,-999.0,83,-99.99,,,-99.99,,2013-02-18 11:41:00,
2013-02-18 04:52:00,14.0,10.0,29.94,NNE,17,1.0,-999.0,84,-99.99,,,-99.99,,2013-02-18 11:52:00,
2013-02-18 05:01:00,14.0,10.0,29.95,NNE,17,1.0,-999.0,85,-99.99,,,-99.99,,2013-02-18 12:01:00,
2013-02-18 05:11:00,14.0,10.0,29.95,NNE,17,1.0,-999.0,85,-99.99,,,-99.99,,2013-02-18 12:11:00,
2013-02-18 05:21:00,14.0,10.0,29.95,NNE,17,0.0,-999.0,84,-99.99,,,-99.99,,2013-02-18 12:21:00,
2013-02-18 05:31:00,14.0,10.0,29.96,NNE,18,1.0,-999.0,85,-99.99,,,-99.99,,2013-02-18 12:31:00,
2013-02-18 05:42:00,14.0,10.0,29.96,NNE,18,1.0,-999.0,85,-99.99,,,-99.99,,2013-02-18 12:42:00,
2013-02-18 05:52:00,14.0,10.0,29.96,NNE,18,0.0,-999.0,85,-99.99,,,-99.99,,2013-02-18 12:52:00,
2013-02-18 06:01:00,14.0,13.0,29.96,NNE,18,1.0,-999.0,95,-99.99,,,-99.99,,2013-02-18 13:01:00,
2013-02-18 06:11:00,14.0,13.0,29.96,NNE,18,1.0,-999.0,95,-99.99,,,-99.99,,2013-02-18 13:11:00,
2013-02-18 06:22:00,14.0,11.0,29.96,NNE,18,1.0,-999.0,86,-99.99,,,-99.99,,2013-02-18 13:22:00,
2013-02-18 06:31:00,13.0,9.0,29.98,NE,35,1.0,-999.0,83,-99.99,,,-99.99,,2013-02-18 13:31:00,
2013-02-18 06:41:00,13.0,9.0,29.98,NE,35,1.0,-999.0,83,-99.99,,,-99.99,,2013-02-18 13:41:00,
2013-02-18 07:01:00,12.0,9.0,29.98,NW,324,2.0,-999.0,86,-99.99,,,-99.99,,2013-02-18 14:01:00,
2013-02-18 07:11:00,12.0,9.0,29.98,NW,324,2.0,-999.0,86,-99.99,,,-99.99,,2013-02-18 14:11:00,
2013-02-18 07:21:00,13.0,10.0,29.98,NW,324,1.0,-999.0,86,-99.99,,,-99.99,,2013-02-18 14:21:00,
2013-02-18 07:31:00,12.0,9.0,29.97,NW,324,1.0,-999.0,86,-99.99,,,-99.99,,2013-02-18 14:31:00,
2013-02-18 07:41:00,12.0,9.0,29.97,NW,324,1.0,-999.0,86,-99.99,,,-99.99,,2013-02-18 14:41:00,
2013-02-18 07:53:00,12.0,9.0,29.98,NNW,336,1.0,-999.0,86,-99.99,,,-99.99,,2013-02-18 14:53:00,
2013-02-18 08:01:00,13.0,10.0,29.98,NNW,344,2.0,-999.0,87,-99.99,,,-99.99,,2013-02-18 15:01:00,
2013-02-18 08:11:00,13.0,10.0,29.98,NNW,344,2.0,-999.0,87,-99.99,,,-99.99,,2013-02-18 15:11:00,
2013-02-18 08:21:00,13.0,10.0,29.99,NNE,30,1.0,-999.0,86,-99.99,,,-99.99,,2013-02-18 15:21:00,
2013-02-18 08:31:00,13.0,10.0,29.99,NE,55,1.0,-999.0,86,-99.99,,,-99.99,,2013-02-18 15:31:00,
2013-02-18 08:41:00,13.0,10.0,29.99,NE,55,1.0,-999.0,86,-99.99,,,-99.99,,2013-02-18 15:41:00,
2013-02-18 08:52:00,14.0,10.0,30.00,NE,55,1.0,-999.0,84,-99.99,,,-99.99,,2013-02-18 15:52:00,
2013-02-18 09:01:00,15.0,11.0,30.00,NE,55,1.0,-999.0,82,-99.99,,,-99.99,,2013-02-18 16:01:00,
2013-02-18 09:11:00,15.0,11.0,30.00,NE,55,1.0,-999.0,82,-99.99,,,-99.99,,2013-02-18 16:11:00,
2013-02-18 09:21:00,16.0,11.0,30.01,North,355,2.0,-999.0,81,-99.99,,,-99.99,,2013-02-18 16:21:00,
2013-02-18 09:31:00,19.0,13.0,30.01,NE,48,4.0,-999.0,77,-99.99,,,-99.99,,2013-02-18 16:31:00,
2013-02-18 09:41:00,19.0,13.0,30.01,NE,48,4.0,-999.0,77,-99.99,,,-99.99,,2013-02-18 16:41:00,
2013-02-18 09:52:00,19.0,12.0,30.01,NE,51,3.0,-999.0,75,-99.99,,,-99.99,,2013-02-18 16:52:00,
2013-02-18 10:02:00,18.0,11.0,30.01,NNE,13,3.0,-999.0,72,-99.99,,,-99.99,,2013-02-18 17:02:00,
2013-02-18 10:11:00,18.0,11.0,30.01,NNE,13,3.0,-999.0,72,-99.99,,,-99.99,,2013-02-18 17:11:00,
2013-02-18 10:21:00,21.0,13.0,30.01,ENE,60,2.0,-999.0,70,-99.99,,,-99.99,,2013-02-18 17:21:00,
2013-02-18 10:31:00,23.0,12.0,30.01,North,360,1.0,-999.0,63,-99.99,,,-99.99,,2013-02-18 17:31:00,
2013-02-18 10:41:00,23.0,12.0,30.01,North,360,1.0,-999.0,63,-99.99,,,-99.99,,2013-02-18 17:41:00,
2013-02-18 10:52:00,24.0,13.0,30.01,NE,37,1.0,-999.0,63,-99.99,,,-99.99,,2013-02-18 17:52:00,
2013-02-18 11:01:00,23.0,12.0,30.01,East,86,4.0,-999.0,63,-99.99,,,-99.99,,2013-02-18 18:01:00,
2013-02-18 11:11:00,23.0,12.0,30.01,East,86,4.0,-999.0,63,-99.99,,,-99.99,,2013-02-18 18:11:00,
2013-02-18 11:22:00,26.0,10.0,30.01,SE,139,3.0,-999.0,51,-99.99,,,-99.99,,2013-02-18 18:22:00,
2013-02-18 11:31:00,27.0,11.0,30.01,SE,136,8.0,-999.0,50,-99.99,,,-99.99,,2013-02-18 18:31:00,
2013-02-18 11:41:00,27.0,11.0,30.01,SE,136,8.0,-999.0,50,-99.99,,,-99.99,,2013-02-18 18:41:00,
2013-02-18 11:52:00,29.0,12.0,30.01,SSE,166,8.0,-999.0,49,-99.99,,,-99.99,,2013-02-18 18:52:00,
2013-02-18 12:01:00,27.0,12.0,30.01,SE,139,8.0,-999.0,53,-99.99,,,-99.99,,2013-02-18 19:01:00,
2013-02-18 12:11:00,27.0,12.0,30.01,SE,139,8.0,-999.0,53,-99.99,,,-99.99,,2013-02-18 19:11:00,
2013-02-18 12:21:00,27.0,12.0,30.01,SE,135,8.0,-999.0,52,-99.99,,,-99.99,,2013-02-18 19:21:00,
2013-02-18 12:32:00,28.0,12.0,30.00,South,172,8.0,-999.0,51,-99.99,,,-99.99,,2013-02-18 19:32:00,
2013-02-18 12:42:00,28.0,12.0,30.00,South,172,8.0,-999.0,51,-99.99,,,-99.99,,2013-02-18 19:42:00,
2013-02-18 12:52:00,28.0,13.0,29.99,SSW,196,8.0,-999.0,52,-99.99,,,-99.99,,2013-02-18 19:52:00,
2013-02-18 13:01:00,28.0,10.0,29.99,SSE,155,9.0,-999.0,47,-99.99,,,-99.99,,2013-02-18 20:01:00,
2013-02-18 13:11:00,28.0,10.0,29.99,SSE,155,9.0,-999.0,47,-99.99,,,-99.99,,2013-02-18 20:11:00,
2013-02-18 13:21:00,28.0,10.0,29.99,South,173,9.0,-999.0,47,-99.99,,,-99.99,,2013-02-18 20:21:00,
2013-02-18 13:31:00,28.0,11.0,29.99,SSW,200,9.0,-999.0,48,-99.99,,,-99.99,,2013-02-18 20:31:00,
2013-02-18 13:52:00,28.0,11.0,29.98,South,178,8.0,-999.0,49,-99.99,,,-99.99,,2013-02-18 20:52:00,
2013-02-18 14:01:00,28.0,12.0,29.98,South,185,7.0,-999.0,50,-99.99,,,-99.99,,2013-02-18 21:01:00,
2013-02-18 14:11:00,28.0,12.0,29.98,South,185,7.0,-999.0,50,-99.99,,,-99.99,,2013-02-18 21:11:00,
2013-02-18 14:21:00,28.0,11.0,29.98,SSW,192,8.0,-999.0,49,-99.99,,,-99.99,,2013-02-18 21:21:00,
2013-02-18 14:31:00,27.0,12.0,29.98,South,189,8.0,-999.0,52,-99.99,,,-99.99,,2013-02-18 21:31:00,
2013-02-18 14:41:00,27.0,12.0,29.98,South,189,8.0,-999.0,52,-99.99,,,-99.99,,2013-02-18 21:41:00,
2013-02-18 14:52:00,27.0,11.0,29.98,South,176,8.0,-999.0,50,-99.99,,,-99.99,,2013-02-18 21:52:00,
2013-02-18 15:01:00,28.0,13.0,29.98,South,170,7.0,-999.0,53,-99.99,,,-99.99,,2013-02-18 22:01:00,
2013-02-18 15:11:00,27.0,12.0,29.98,South,169,8.0,-999.0,52,-99.99,,,-99.99,,2013-02-18 22:11:00,
2013-02-18 15:21:00,27.0,12.0,29.98,South,169,8.0,-999.0,52,-99.99,,,-99.99,,2013-02-18 22:21:00,
2013-02-18 15:32:00,27.0,13.0,29.98,South,173,8.0,-999.0,54,-99.99,,,-99.99,,2013-02-18 22:32:00,
2013-02-18 15:41:00,27.0,13.0,29.98,South,173,8.0,-999.0,54,-99.99,,,-99.99,,2013-02-18 22:41:00,
2013-02-18 15:53:00,28.0,13.0,29.98,South,188,8.0,-999.0,52,-99.99,,,-99.99,,2013-02-18 22:53:00,
2013-02-18 16:01:00,28.0,13.0,29.98,SSE,157,7.0,-999.0,52,-99.99,,,-99.99,,2013-02-18 23:01:00,
2013-02-18 16:11:00,28.0,13.0,29.98,SSE,157,7.0,-999.0,52,-99.99,,,-99.99,,2013-02-18 23:11:00,
2013-02-18 16:21:00,27.0,12.0,29.98,South,171,7.0,-999.0,52,-99.99,,,-99.99,,2013-02-18 23:21:00,
2013-02-18 16:31:00,26.0,12.0,29.97,SSE,163,8.0,-999.0,55,-99.99,,,-99.99,,2013-02-18 23:31:00,
2013-02-18 16:41:00,26.0,12.0,29.97,SSE,163,8.0,-999.0,55,-99.99,,,-99.99,,2013-02-18 23:41:00,
2013-02-18 16:53:00,25.0,12.0,29.97,South,169,5.0,-999.0,57,-99.99,,,-99.99,,2013-02-18 23:53:00,
2013-02-18 17:01:00,24.0,11.0,29.97,South,174,6.0,-999.0,57,-99.99,,,-99.99,,2013-02-19 00:01:00,
2013-02-18 17:11:00,24.0,11.0,29.97,South,174,6.0,-999.0,57,-99.99,,,-99.99,,2013-02-19 00:11:00,
2013-02-18 17:21:00,24.0,11.0,29.98,South,171,7.0,-999.0,58,-99.99,,,-99.99,,2013-02-19 00:21:00,
2013-02-18 17:32:00,23.0,11.0,29.95,South,175,5.0,-999.0,59,-99.99,,,-99.99,,2013-02-19 00:32:00,
2013-02-18 17:41:00,23.0,11.0,29.95,South,175,5.0,-999.0,59,-99.99,,,-99.99,,2013-02-19 00:41:00,
2013-02-18 17:53:00,22.0,10.0,29.96,South,176,5.0,-999.0,60,-99.99,,,-99.99,,2013-02-19 00:53:00,
2013-02-18 18:02:00,20.0,9.0,29.96,South,179,4.0,-999.0,63,-99.99,,,-99.99,,2013-02-19 01:02:00,
2013-02-18 18:11:00,20.0,9.0,29.96,South,179,4.0,-999.0,63,-99.99,,,-99.99,,2013-02-19 01:11:00,
2013-02-18 18:22:00,20.0,9.0,29.95,South,179,2.0,-999.0,63,-99.99,,,-99.99,,2013-02-19 01:22:00,
2013-02-18 18:32:00,18.0,9.0,29.96,South,179,1.0,-999.0,67,-99.99,,,-99.99,,2013-02-19 01:32:00,
2013-02-18 18:42:00,18.0,9.0,29.96,South,179,1.0,-999.0,67,-99.99,,,-99.99,,2013-02-19 01:42:00,
2013-02-18 18:54:00,18.0,10.0,29.95,South,179,1.0,-999.0,69,-99.99,,,-99.99,,2013-02-19 01:54:00,
2013-02-18 19:01:00,18.0,10.0,29.96,South,179,1.0,-999.0,69,-99.99,,,-99.99,,2013-02-19 02:01:00,
2013-02-18 19:11:00,18.0,10.0,29.96,South,179,1.0,-999.0,69,-99.99,,,-99.99,,2013-02-19 02:11:00,
2013-02-18 19:21:00,18.0,10.0,29.95,South,179,1.0,-999.0,70,-99.99,,,-99.99,,2013-02-19 02:21:00,
2013-02-18 19:32:00,18.0,10.0,29.96,South,179,0.0,-999.0,70,-99.99,,,-99.99,,2013-02-19 02:32:00,
2013-02-18 19:42:00,18.0,10.0,29.96,South,179,0.0,-999.0,70,-99.99,,,-99.99,,2013-02-19 02:42:00,
2013-02-18 19:54:00,16.0,8.0,29.95,South,179,0.0,-999.0,70,-99.99,,,-99.99,,2013-02-19 02:54:00,
2013-02-18 20:02:00,14.0,5.0,29.95,East,94,1.0,-999.0,67,-99.99,,,-99.99,,2013-02-19 03:02:00,
2013-02-18 20:11:00,14.0,5.0,29.95,East,94,1.0,-999.0,67,-99.99,,,-99.99,,2013-02-19 03:11:00,
2013-02-18 20:21:00,10.0,2.0,29.95,East,83,2.0,-999.0,70,-99.99,,,-99.99,,2013-02-19 03:21:00,
2013-02-18 20:31:00,9.0,2.0,29.96,East,82,1.0,-999.0,72,-99.99,,,-99.99,,2013-02-19 03:31:00,
2013-02-18 20:42:00,9.0,2.0,29.96,East,82,1.0,-999.0,72,-99.99,,,-99.99,,2013-02-19 03:42:00,
2013-02-18 20:53:00,10.0,4.0,29.96,East,82,2.0,-999.0,76,-99.99,,,-99.99,,2013-02-19 03:53:00,
2013-02-18 21:01:00,8.0,1.0,29.96,East,82,0.0,-999.0,74,-99.99,,,-99.99,,2013-02-19 04:01:00,
2013-02-18 21:21:00,9.0,4.0,29.96,East,82,0.0,-999.0,81,-99.99,,,-99.99,,2013-02-19 04:21:00,
2013-02-18 21:31:00,7.0,2.0,29.96,East,80,1.0,-999.0,80,-99.99,,,-99.99,,2013-02-19 04:31:00,
2013-02-18 21:42:00,7.0,2.0,29.96,East,80,1.0,-999.0,80,-99.99,,,-99.99,,2013-02-19 04:42:00,
2013-02-18 21:53:00,6.0,2.0,29.96,NE,34,1.0,-999.0,82,-99.99,,,-99.99,,2013-02-19 04:53:00,
2013-02-18 22:01:00,6.0,2.0,29.94,North,360,1.0,-999.0,82,-99.99,,,-99.99,,2013-02-19 05:01:00,
2013-02-18 22:12:00,6.0,2.0,29.94,North,360,1.0,-999.0,82,-99.99,,,-99.99,,2013-02-19 05:12:00,
2013-02-18 22:22:00,8.0,3.0,29.94,North,355,2.0,-999.0,81,-99.99,,,-99.99,,2013-02-19 05:22:00,
2013-02-18 22:32:00,7.0,2.0,29.94,North,355,1.0,-999.0,79,-99.99,,,-99.99,,2013-02-19 05:32:00,
2013-02-18 22:42:00,7.0,2.0,29.94,North,355,1.0,-999.0,79,-99.99,,,-99.99,,2013-02-19 05:42:00,
2013-02-18 22:52:00,6.0,2.0,29.94,North,355,1.0,-999.0,84,-99.99,,,-99.99,,2013-02-19 05:52:00,
2013-02-18 23:02:00,6.0,1.0,29.94,North,5,1.0,-999.0,79,-99.99,,,-99.99,,2013-02-19 06:02:00,
2013-02-18 23:11:00,6.0,1.0,29.94,North,5,1.0,-999.0,79,-99.99,,,-99.99,,2013-02-19 06:11:00,
2013-02-18 23:21:00,5.0,1.0,29.95,North,5,1.0,-999.0,82,-99.99,,,-99.99,,2013-02-19 06:21:00,
2013-02-18 23:32:00,6.0,2.0,29.94,NNE,13,2.0,-999.0,83,-99.99,,,-99.99,,2013-02-19 06:32:00,
2013-02-18 23:41:00,6.0,2.0,29.94,NNE,13,2.0,-999.0,83,-99.99,,,-99.99,,2013-02-19 06:41:00,
2013-02-18 23:52:00,7.0,2.0,29.94,NNW,338,2.0,-999.0,81,-99.99,,,-99.99,,2013-02-19 06:52:00,